ADDS METAR Data INFO
IDs: Format: Raw Decoded Include TAF

Data at: 1041 UTC 19 Oct 2017

KALO 190954Z 00000KT 10SM CLR 03/02 A3008 RMK AO2 SLP188 T00330017
KALO 190854Z 00000KT 10SM CLR 05/03 A3007 RMK AO2 SLP182 T00500033 51013
KALO 190754Z 00000KT 10SM CLR 06/04 A3006 RMK AO2 SLP179 T00610044
KALO 190654Z 00000KT 10SM CLR 06/05 A3004 RMK AO2 SLP174 T00610050
KALO 190554Z 28003KT 10SM CLR 06/06 A3003 RMK AO2 SLP169 T00610056 10167 20061 402330061 52010
KALO 190454Z 31003KT 10SM CLR 09/08 A3002 RMK AO2 SLP167 T00940083
KALO 190354Z 28003KT 10SM CLR 11/08 A3000 RMK AO2 SLP161 T01060078
KALO 190254Z 25003KT 10SM CLR 13/08 A3000 RMK AO2 SLP158 T01280083 51013
KALO 190154Z 32007KT 10SM CLR 13/08 A2999 RMK AO2 SLP156 T01280083
KALO 190054Z 21005KT 7SM CLR 15/09 A2998 RMK AO2 SLP152 T01500089
KALO 182354Z 21006KT 10SM CLR 16/08 A2996 RMK AO2 SLP146 T01610083 10233 20161 53019
KALO 182254Z 21007KT 10SM CLR 21/08 A2993 RMK AO2 SLP133 T02060083
KALO 182154Z 22012G18KT 10SM CLR 23/08 A2991 RMK AO2 SLP129 T02280078
KALO 182054Z 20014KT 10SM CLR 23/07 A2990 RMK AO2 SLP123 T02280072 55009
KALO 181954Z 21016KT 10SM CLR 23/07 A2990 RMK AO2 SLP123 T02330072
KALO 181854Z 18016KT 10SM CLR 23/07 A2991 RMK AO2 SLP126 T02280072
KALO 181754Z 19014KT 10SM CLR 22/08 A2993 RMK AO2 SLP133 T02170078 10217 20083 58010
KALO 181654Z 19015KT 10SM CLR 19/08 A2995 RMK AO2 SLP143 T01940078
KALO 181554Z 20014G18KT 10SM CLR 17/08 A2995 RMK AO2 SLP143 T01720078
KALO 181454Z 20012G19KT 10SM CLR 14/08 A2996 RMK AO2 SLP146 T01440078 56008
KALO 181354Z 19012KT 10SM CLR 12/07 A2997 RMK AO2 SLP149 T01170072
KALO 181254Z 16008KT 10SM CLR 09/07 A2997 RMK AO2 SLP150 T00890067
KALO 181154Z 16008KT 10SM CLR 09/07 A2998 RMK AO2 SLP155 T00890067 10111 20089 53001
KALO 181054Z 17007KT 10SM CLR 09/07 A2998 RMK AO2 SLP154 T00890067
KALO 180954Z AUTO 17008KT 10SM CLR 09/07 A2998 RMK AO2 SLP150 T00940067
KALO 180854Z AUTO 17008KT 10SM CLR 10/07 A2998 RMK AO2 SLP150 T01000067 58012
KALO 180754Z AUTO 17005KT 10SM CLR 10/06 A3000 RMK AO2 SLP157 T01000061
KALO 180654Z AUTO 16006KT 10SM CLR 10/07 A3001 RMK AO2 SLP163 T01000067
KALO 180554Z AUTO 17006KT 10SM CLR 11/07 A3002 RMK AO2 SLP164 T01110067 10161 20106 402280094 58005
KALO 180454Z AUTO 18007KT 10SM CLR 12/07 A3002 RMK AO2 SLP167 T01170067
KALO 180354Z AUTO 18007KT 10SM CLR 13/07 A3003 RMK AO2 SLP169 T01280067
KALO 180254Z AUTO 18010KT 10SM CLR 14/07 A3003 RMK AO2 SLP170 T01390067 51004
KALO 180154Z AUTO 18008KT 10SM CLR 14/07 A3003 RMK AO2 SLP171 T01440067
KALO 180054Z 17006KT 10SM CLR 15/07 A3004 RMK AO2 SLP172 T01500067
KALO 172354Z 18007KT 10SM CLR 16/06 A3002 RMK AO2 SLP167 T01610061 10228 20161 55000
KALO 172254Z 18009KT 10SM CLR 19/06 A3001 RMK AO2 SLP162 T01940061